createdAt,value
2018-03-04T00:00:00.983Z,38.3
2018-03-04T00:00:52.052Z,38.3
2018-03-04T00:01:41.140Z,38.3
2018-03-04T00:02:31.405Z,38.3
2018-03-04T00:03:21.443Z,38.3
2018-03-04T00:04:11.165Z,38.3
2018-03-04T00:05:02.055Z,38.3
2018-03-04T00:05:51.902Z,38.3
2018-03-04T00:06:41.939Z,38.3
2018-03-04T00:07:31.147Z,38.3
2018-03-04T00:08:21.936Z,38.3
2018-03-04T00:09:12.596Z,38.3
2018-03-04T00:10:01.921Z,38.3
2018-03-04T00:10:52.422Z,38.3
2018-03-04T00:11:41.475Z,38.3
2018-03-04T00:12:31.970Z,38.3
2018-03-04T00:13:22.212Z,38.3
2018-03-04T00:14:12.174Z,38.3
2018-03-04T00:15:01.771Z,38.3
2018-03-04T00:15:51.637Z,38.3
2018-03-04T00:16:42.643Z,38.3
2018-03-04T00:17:32.344Z,38.3
2018-03-04T00:18:22.721Z,38.3
2018-03-04T00:19:12.817Z,38.2
2018-03-04T00:20:02.294Z,38.2
2018-03-04T00:20:52.487Z,38.2
2018-03-04T00:21:42.448Z,38.2
2018-03-04T00:22:32.709Z,38.2
2018-03-04T00:23:21.975Z,38.2
2018-03-04T00:24:12.719Z,38.2
2018-03-04T00:25:02.595Z,38.1
2018-03-04T00:25:52.878Z,38.2
2018-03-04T00:26:42.114Z,38.1
2018-03-04T00:27:32.926Z,38.1
2018-03-04T00:28:23.449Z,38.1
2018-03-04T00:29:14.339Z,38.1
2018-03-04T00:30:03.614Z,38.1
2018-03-04T00:30:52.180Z,38.1
2018-03-04T00:31:43.431Z,38.1
2018-03-04T00:32:33.172Z,38.1
2018-03-04T00:33:22.770Z,38.1
2018-03-04T00:34:13.315Z,38.1
2018-03-04T00:35:03.462Z,38.1
2018-03-04T00:35:54.013Z,38.1
2018-03-04T00:36:43.711Z,38.1
2018-03-04T00:37:33.333Z,38.1
2018-03-04T00:38:23.826Z,38.1
2018-03-04T00:39:13.496Z,38.1
2018-03-04T00:40:03.321Z,38.1
2018-03-04T00:40:54.848Z,38.1
2018-03-04T00:41:43.086Z,38.1
2018-03-04T00:42:33.895Z,38.1
2018-03-04T00:43:24.828Z,38.1
2018-03-04T00:44:14.023Z,38
2018-03-04T00:45:03.523Z,38.1
2018-03-04T00:45:53.555Z,38
2018-03-04T00:46:43.521Z,38
2018-03-04T00:47:35.413Z,38
2018-03-04T00:48:23.949Z,38
2018-03-04T00:49:13.955Z,38
2018-03-04T00:50:04.209Z,38
2018-03-04T00:50:55.048Z,38
2018-03-04T00:51:45.720Z,37.9
2018-03-04T00:52:35.367Z,38
2018-03-04T00:53:26.053Z,37.9
2018-03-04T00:54:15.023Z,37.9
2018-03-04T00:55:04.267Z,37.9
2018-03-04T00:55:55.561Z,37.9
2018-03-04T00:56:45.939Z,37.9
2018-03-04T00:57:34.740Z,37.9
2018-03-04T00:58:26.046Z,37.9
2018-03-04T00:59:16.141Z,37.9
2018-03-04T01:00:05.572Z,37.9
2018-03-04T01:00:54.993Z,37.9
2018-03-04T01:01:45.832Z,37.9
2018-03-04T01:02:35.482Z,37.9
2018-03-04T01:03:26.134Z,37.9
2018-03-04T01:04:15.136Z,37.9
2018-03-04T01:05:05.795Z,37.9
2018-03-04T01:05:55.317Z,37.9
2018-03-04T01:06:45.354Z,37.9
2018-03-04T01:07:35.614Z,37.9
2018-03-04T01:08:25.829Z,37.9
2018-03-04T01:09:16.227Z,37.9
2018-03-04T01:10:05.839Z,37.8
2018-03-04T01:10:55.839Z,37.8
2018-03-04T01:11:46.260Z,37.8
2018-03-04T01:12:36.364Z,37.8
2018-03-04T01:13:26.461Z,37.8
2018-03-04T01:14:15.726Z,37.8
2018-03-04T01:15:06.669Z,37.8
2018-03-04T01:15:56.392Z,37.8
2018-03-04T01:16:46.621Z,37.8
2018-03-04T01:17:36.761Z,37.8
2018-03-04T01:18:26.111Z,37.8
2018-03-04T01:19:16.851Z,37.8
2018-03-04T01:20:07.001Z,37.8
2018-03-04T01:20:56.602Z,37.8
2018-03-04T01:21:46.651Z,37.8
2018-03-04T01:22:37.288Z,37.8
2018-03-04T01:23:27.080Z,37.8
2018-03-04T01:24:17.042Z,37.8
2018-03-04T01:25:06.826Z,37.8
2018-03-04T01:25:57.512Z,37.8
2018-03-04T01:26:47.798Z,37.7
2018-03-04T01:27:36.759Z,37.8
2018-03-04T01:28:27.200Z,37.7
2018-03-04T01:29:16.316Z,37.7
2018-03-04T01:30:07.976Z,37.7
2018-03-04T01:30:57.310Z,37.7
2018-03-04T01:31:47.825Z,37.7
2018-03-04T01:32:37.505Z,37.6
2018-03-04T01:33:27.335Z,37.7
2018-03-04T01:34:18.125Z,37.7
2018-03-04T01:35:07.572Z,37.6
2018-03-04T01:35:57.543Z,37.6
2018-03-04T01:36:47.934Z,37.6
2018-03-04T01:37:38.192Z,37.6
2018-03-04T01:38:27.793Z,37.6
2018-03-04T01:39:17.085Z,37.6
2018-03-04T01:40:08.010Z,37.6
2018-03-04T01:40:58.349Z,37.6
2018-03-04T01:41:49.127Z,37.6
2018-03-04T01:42:36.961Z,37.6
2018-03-04T01:43:27.380Z,37.6
2018-03-04T01:44:19.097Z,37.6
2018-03-04T01:45:07.764Z,37.6
2018-03-04T01:45:58.805Z,37.6
2018-03-04T01:46:48.445Z,37.6
2018-03-04T01:47:39.310Z,37.6
2018-03-04T01:48:29.058Z,37.6
2018-03-04T01:49:18.261Z,37.6
2018-03-04T01:50:08.247Z,37.6
2018-03-04T01:50:57.792Z,37.6
2018-03-04T01:51:48.694Z,37.5
2018-03-04T01:52:38.311Z,37.5
2018-03-04T01:53:29.992Z,37.5
2018-03-04T01:54:18.834Z,37.5
2018-03-04T01:55:09.846Z,37.5
2018-03-04T01:55:58.852Z,37.5
2018-03-04T01:56:49.318Z,37.5
2018-03-04T01:57:38.791Z,37.5
2018-03-04T01:58:29.842Z,37.4
2018-03-04T01:59:19.789Z,37.4
2018-03-04T02:00:08.505Z,37.4
2018-03-04T02:00:59.019Z,37.4
2018-03-04T02:01:49.811Z,37.4
2018-03-04T02:02:39.982Z,37.4
2018-03-04T02:03:30.034Z,37.4
2018-03-04T02:04:20.190Z,37.4
2018-03-04T02:05:09.868Z,37.4
2018-03-04T02:06:01.063Z,37.5
2018-03-04T02:06:48.855Z,37.5
2018-03-04T02:07:40.275Z,37.5
2018-03-04T02:08:30.516Z,37.6
2018-03-04T02:09:20.035Z,37.6
2018-03-04T02:10:10.258Z,37.6
2018-03-04T02:11:00.532Z,37.7
2018-03-04T02:11:50.158Z,37.8
2018-03-04T02:12:39.826Z,37.8
2018-03-04T02:13:29.578Z,37.9
2018-03-04T02:14:20.322Z,37.9
2018-03-04T02:15:09.819Z,38.1
2018-03-04T02:16:00.560Z,38.1
2018-03-04T02:16:50.300Z,38.2
2018-03-04T02:17:40.771Z,38.3
2018-03-04T02:18:30.538Z,38.3
2018-03-04T02:19:20.643Z,38.4
2018-03-04T02:20:10.636Z,38.5
2018-03-04T02:21:00.808Z,38.6
2018-03-04T02:21:50.877Z,38.7
2018-03-04T02:22:41.243Z,38.8
2018-03-04T02:23:30.491Z,38.9
2018-03-04T02:24:21.645Z,38.9
2018-03-04T02:25:11.229Z,39.1
2018-03-04T02:26:01.231Z,39.1
2018-03-04T02:26:51.517Z,39.3
2018-03-04T02:27:40.390Z,39.3
2018-03-04T02:28:32.085Z,39.4
2018-03-04T02:29:20.512Z,39.5
2018-03-04T02:30:12.484Z,39.6
2018-03-04T02:31:01.649Z,39.7
2018-03-04T02:31:51.942Z,39.8
2018-03-04T02:32:40.856Z,39.8
2018-03-04T02:33:31.490Z,39.9
2018-03-04T02:34:22.047Z,39.9
2018-03-04T02:35:12.480Z,39.9
2018-03-04T02:36:01.815Z,40
2018-03-04T02:36:51.945Z,40
2018-03-04T02:37:42.673Z,40.1
2018-03-04T02:38:31.557Z,40.1
2018-03-04T02:39:21.621Z,40.1
2018-03-04T02:40:12.160Z,40.3
2018-03-04T02:41:02.329Z,40.3
2018-03-04T02:41:53.083Z,40.3
2018-03-04T02:42:42.121Z,40.4
2018-03-04T02:43:32.751Z,40.4
2018-03-04T02:44:23.025Z,40.4
2018-03-04T02:45:11.376Z,40.4
2018-03-04T02:46:02.186Z,40.4
2018-03-04T02:46:53.745Z,40.5
2018-03-04T02:47:42.666Z,40.5
2018-03-04T02:48:33.264Z,40.5
2018-03-04T02:49:23.882Z,40.6
2018-03-04T02:50:12.526Z,40.6
2018-03-04T02:51:03.454Z,40.6
2018-03-04T02:51:54.343Z,40.6
2018-03-04T02:52:42.474Z,40.6
2018-03-04T02:53:33.297Z,40.7
2018-03-04T02:54:22.963Z,40.7
2018-03-04T02:55:12.714Z,40.7
2018-03-04T02:56:03.304Z,40.7
2018-03-04T02:56:53.508Z,40.7
2018-03-04T02:57:42.676Z,40.8
2018-03-04T02:58:33.786Z,40.8
2018-03-04T02:59:24.901Z,40.8
2018-03-04T03:00:14.709Z,40.8
2018-03-04T03:01:04.416Z,40.8
2018-03-04T03:01:53.325Z,40.9
2018-03-04T03:02:43.657Z,40.9
2018-03-04T03:03:34.518Z,40.9
2018-03-04T03:04:24.948Z,40.9
2018-03-04T03:05:13.825Z,40.9
2018-03-04T03:06:04.468Z,40.9
2018-03-04T03:06:54.093Z,40.9
2018-03-04T03:07:44.632Z,40.9
2018-03-04T03:08:34.054Z,40.9
2018-03-04T03:09:24.984Z,40.9
2018-03-04T03:10:14.527Z,41
2018-03-04T03:11:04.821Z,41
2018-03-04T03:11:54.075Z,41
2018-03-04T03:12:44.700Z,41
2018-03-04T03:13:34.797Z,41.1
2018-03-04T03:14:25.093Z,41.1
2018-03-04T03:15:15.118Z,41.1
2018-03-04T03:16:05.100Z,41.1
2018-03-04T03:16:55.600Z,41.1
2018-03-04T03:17:45.831Z,41.1
2018-03-04T03:18:35.444Z,41.1
2018-03-04T03:19:24.911Z,41.1
2018-03-04T03:20:14.986Z,41.1
2018-03-04T03:21:05.286Z,41.1
2018-03-04T03:21:55.664Z,41.1
2018-03-04T03:22:44.611Z,41.1
2018-03-04T03:23:35.174Z,41.2
2018-03-04T03:24:26.611Z,41.2
2018-03-04T03:25:15.176Z,41.2
2018-03-04T03:26:04.734Z,41.2
2018-03-04T03:26:55.621Z,41.3
2018-03-04T03:27:45.941Z,41.3
2018-03-04T03:28:36.104Z,41.3
2018-03-04T03:29:25.828Z,41.2
2018-03-04T03:30:16.203Z,41.2
2018-03-04T03:31:06.109Z,41.3
2018-03-04T03:31:55.963Z,41.3
2018-03-04T03:32:46.583Z,41.3
2018-03-04T03:33:36.391Z,41.2
2018-03-04T03:34:25.644Z,41.2
2018-03-04T03:35:15.810Z,41.2
2018-03-04T03:36:06.078Z,41.2
2018-03-04T03:36:56.410Z,41.2
2018-03-04T03:37:45.825Z,41.2
2018-03-04T03:38:36.810Z,41.2
2018-03-04T03:39:26.499Z,41.1
2018-03-04T03:40:16.928Z,41.2
2018-03-04T03:41:06.880Z,41.1
2018-03-04T03:41:56.458Z,41.1
2018-03-04T03:42:46.484Z,41.1
2018-03-04T03:43:37.629Z,41.1
2018-03-04T03:44:27.028Z,41.1
2018-03-04T03:45:17.176Z,41.1
2018-03-04T03:46:06.468Z,41.1
2018-03-04T03:46:55.720Z,41.1
2018-03-04T03:47:48.166Z,41.1
2018-03-04T03:48:36.995Z,41.1
2018-03-04T03:49:27.622Z,41.1
2018-03-04T03:50:17.715Z,41.1
2018-03-04T03:51:07.115Z,41.1
2018-03-04T03:51:57.667Z,41.1
2018-03-04T03:52:47.264Z,41.1
2018-03-04T03:53:37.187Z,41.1
2018-03-04T03:54:27.222Z,41.1
2018-03-04T03:55:17.921Z,41.1
2018-03-04T03:56:08.219Z,41.1
2018-03-04T03:56:58.934Z,41.1
2018-03-04T03:57:46.919Z,41.1
2018-03-04T03:58:37.569Z,41.1
2018-03-04T03:59:27.681Z,41.1
2018-03-04T04:00:18.642Z,41.1
2018-03-04T04:01:08.024Z,41.1
2018-03-04T04:01:57.834Z,41.1
2018-03-04T04:02:48.521Z,41.1
2018-03-04T04:03:38.662Z,41.1
2018-03-04T04:04:27.935Z,41
2018-03-04T04:05:17.996Z,41
2018-03-04T04:06:08.211Z,41
2018-03-04T04:06:59.389Z,41
2018-03-04T04:07:49.319Z,41
2018-03-04T04:08:36.768Z,41
2018-03-04T04:09:28.609Z,41
2018-03-04T04:10:17.767Z,41
2018-03-04T04:11:08.111Z,41
2018-03-04T04:11:58.837Z,41
2018-03-04T04:12:49.411Z,41
2018-03-04T04:13:39.187Z,40.9
2018-03-04T04:14:28.431Z,40.9
2018-03-04T04:15:18.867Z,41
2018-03-04T04:16:08.686Z,40.9
2018-03-04T04:16:59.003Z,40.9
2018-03-04T04:17:49.537Z,40.9
2018-03-04T04:18:38.742Z,40.9
2018-03-04T04:19:29.554Z,40.9
2018-03-04T04:20:18.653Z,40.9
2018-03-04T04:21:08.998Z,40.9
2018-03-04T04:21:59.585Z,40.9
2018-03-04T04:22:49.455Z,40.9
2018-03-04T04:23:39.967Z,40.9
2018-03-04T04:24:29.808Z,40.9
2018-03-04T04:25:34.125Z,40.9
2018-03-04T04:26:09.943Z,40.9
2018-03-04T04:27:00.121Z,40.8
2018-03-04T04:27:50.705Z,40.8
2018-03-04T04:28:40.493Z,40.8
2018-03-04T04:29:31.087Z,40.8
2018-03-04T04:30:20.913Z,40.8
2018-03-04T04:31:11.064Z,40.8
2018-03-04T04:32:00.724Z,40.8
2018-03-04T04:32:51.051Z,40.8
2018-03-04T04:33:40.565Z,40.8
2018-03-04T04:34:31.464Z,40.8
2018-03-04T04:35:20.975Z,40.8
2018-03-04T04:36:11.891Z,40.8
2018-03-04T04:37:01.328Z,40.8
2018-03-04T04:37:51.668Z,40.8
2018-03-04T04:38:41.721Z,40.8
2018-03-04T04:39:31.012Z,40.8
2018-03-04T04:40:20.661Z,40.8
2018-03-04T04:41:11.642Z,40.8
2018-03-04T04:42:01.649Z,40.8
2018-03-04T04:42:51.526Z,40.7
2018-03-04T04:43:40.384Z,40.7
2018-03-04T04:44:31.405Z,40.7
2018-03-04T04:45:21.127Z,40.7
2018-03-04T04:46:11.279Z,40.7
2018-03-04T04:46:59.978Z,40.7
2018-03-04T04:47:51.266Z,40.7
2018-03-04T04:48:40.859Z,40.7
2018-03-04T04:49:31.376Z,40.6
2018-03-04T04:50:20.949Z,40.7
2018-03-04T04:51:11.200Z,40.6
2018-03-04T04:52:01.587Z,40.6
2018-03-04T04:52:51.384Z,40.6
2018-03-04T04:53:40.606Z,40.6
2018-03-04T04:54:31.046Z,40.6
2018-03-04T04:55:20.923Z,40.6
2018-03-04T04:56:11.678Z,40.6
2018-03-04T04:57:01.534Z,40.6
2018-03-04T04:57:51.546Z,40.6
2018-03-04T04:58:41.679Z,40.6
2018-03-04T04:59:32.502Z,40.6
2018-03-04T05:00:21.999Z,40.6
2018-03-04T05:01:12.369Z,40.6
2018-03-04T05:02:01.619Z,40.6
2018-03-04T05:02:51.953Z,40.6
2018-03-04T05:03:38.984Z,40.6
2018-03-04T05:04:32.608Z,40.6
2018-03-04T05:05:22.814Z,40.6
2018-03-04T05:06:12.584Z,40.6
2018-03-04T05:07:02.547Z,40.6
2018-03-04T05:07:53.161Z,40.6
2018-03-04T05:08:43.292Z,40.6
2018-03-04T05:09:33.686Z,40.6
2018-03-04T05:10:23.458Z,40.5
2018-03-04T05:11:13.582Z,40.5
2018-03-04T05:12:03.175Z,40.5
2018-03-04T05:12:53.617Z,40.5
2018-03-04T05:13:43.587Z,40.5
2018-03-04T05:14:33.286Z,40.5
2018-03-04T05:15:22.976Z,40.5
2018-03-04T05:16:12.874Z,40.5
2018-03-04T05:17:03.322Z,40.5
2018-03-04T05:17:53.657Z,40.5
2018-03-04T05:18:42.782Z,40.5
2018-03-04T05:19:34.437Z,40.4
2018-03-04T05:20:23.909Z,40.4
2018-03-04T05:21:13.632Z,40.4
2018-03-04T05:22:03.477Z,40.4
2018-03-04T05:22:53.275Z,40.4
2018-03-04T05:23:43.110Z,40.4
2018-03-04T05:24:32.772Z,40.4
2018-03-04T05:25:23.900Z,40.4
2018-03-04T05:26:14.268Z,40.4
2018-03-04T05:27:03.856Z,40.4
2018-03-04T05:27:53.088Z,40.4
2018-03-04T05:28:43.942Z,40.4
2018-03-04T05:29:34.108Z,40.4
2018-03-04T05:30:24.082Z,40.4
2018-03-04T05:31:14.248Z,40.4
2018-03-04T05:32:03.921Z,40.4
2018-03-04T05:32:55.204Z,40.4
2018-03-04T05:33:44.275Z,40.4
2018-03-04T05:34:34.873Z,40.4
2018-03-04T05:35:25.187Z,40.4
2018-03-04T05:36:14.562Z,40.4
2018-03-04T05:37:05.059Z,40.4
2018-03-04T05:37:54.336Z,40.4
2018-03-04T05:38:45.468Z,40.4
2018-03-04T05:39:34.804Z,40.4
2018-03-04T05:40:25.346Z,40.3
2018-03-04T05:41:14.613Z,40.3
2018-03-04T05:42:05.726Z,40.3
2018-03-04T05:42:54.922Z,40.3
2018-03-04T05:43:46.058Z,40.3
2018-03-04T05:44:35.646Z,40.3
2018-03-04T05:45:25.688Z,40.3
2018-03-04T05:46:15.096Z,40.3
2018-03-04T05:47:05.383Z,40.3
2018-03-04T05:47:56.433Z,40.3
2018-03-04T05:48:46.103Z,40.3
2018-03-04T05:49:36.285Z,40.3
2018-03-04T05:50:25.035Z,40.3
2018-03-04T05:51:16.016Z,40.3
2018-03-04T05:52:05.414Z,40.3
2018-03-04T05:52:55.113Z,40.3
2018-03-04T05:53:45.333Z,40.3
2018-03-04T05:54:35.750Z,40.3
2018-03-04T05:55:25.813Z,40.2
2018-03-04T05:56:15.811Z,40.2
2018-03-04T05:57:05.441Z,40.2
2018-03-04T05:57:55.285Z,40.2
2018-03-04T05:58:45.758Z,40.2
2018-03-04T05:59:36.497Z,40.2
2018-03-04T06:00:26.490Z,40.2
2018-03-04T06:01:16.555Z,40.2
2018-03-04T06:02:06.967Z,40.2
2018-03-04T06:02:56.253Z,40.2
2018-03-04T06:03:45.532Z,40.1
2018-03-04T06:04:36.185Z,40.1
2018-03-04T06:05:26.955Z,40.1
2018-03-04T06:06:16.582Z,40.1
2018-03-04T06:07:06.429Z,40.1
2018-03-04T06:07:57.069Z,40.1
2018-03-04T06:08:47.017Z,40.1
2018-03-04T06:09:36.404Z,40.1
2018-03-04T06:10:26.033Z,40.1
2018-03-04T06:11:16.832Z,40.1
2018-03-04T06:12:07.753Z,40.1
2018-03-04T06:12:58.140Z,40.1
2018-03-04T06:13:47.851Z,40.1
2018-03-04T06:14:38.541Z,40.1
2018-03-04T06:15:28.220Z,40.1
2018-03-04T06:16:18.042Z,40.1
2018-03-04T06:17:08.191Z,40.1
2018-03-04T06:17:58.180Z,40.1
2018-03-04T06:18:48.774Z,40
2018-03-04T06:19:38.259Z,40
2018-03-04T06:20:29.204Z,40
2018-03-04T06:21:18.952Z,40
2018-03-04T06:22:08.201Z,40
2018-03-04T06:22:59.054Z,40
2018-03-04T06:23:47.954Z,40
2018-03-04T06:24:38.934Z,39.9
2018-03-04T06:25:28.979Z,39.9
2018-03-04T06:26:19.327Z,39.9
2018-03-04T06:27:09.106Z,39.9
2018-03-04T06:27:58.891Z,39.9
2018-03-04T06:28:49.176Z,39.9
2018-03-04T06:29:38.921Z,39.9
2018-03-04T06:30:29.001Z,39.9
2018-03-04T06:31:19.341Z,39.9
2018-03-04T06:32:08.723Z,39.9
2018-03-04T06:32:58.748Z,39.9
2018-03-04T06:33:49.180Z,39.9
2018-03-04T06:34:37.680Z,39.9
2018-03-04T06:35:28.121Z,39.9
2018-03-04T06:36:19.463Z,39.9
2018-03-04T06:37:09.213Z,39.9
2018-03-04T06:37:58.718Z,39.9
2018-03-04T06:38:48.783Z,39.9
2018-03-04T06:39:39.870Z,39.8
2018-03-04T06:40:29.161Z,39.8
2018-03-04T06:41:19.253Z,39.8
2018-03-04T06:42:09.573Z,39.8
2018-03-04T06:42:59.515Z,39.8
2018-03-04T06:43:48.210Z,39.8
2018-03-04T06:44:39.221Z,39.8
2018-03-04T06:45:29.217Z,39.8
2018-03-04T06:46:20.429Z,39.7
2018-03-04T06:47:09.813Z,39.7
2018-03-04T06:47:59.298Z,39.6
2018-03-04T06:48:49.732Z,39.6
2018-03-04T06:49:38.923Z,39.5
2018-03-04T06:50:30.317Z,39.5
2018-03-04T06:51:19.077Z,39.4
2018-03-04T06:52:09.276Z,39.4
2018-03-04T06:52:59.142Z,39.4
2018-03-04T06:53:49.124Z,39.3
2018-03-04T06:54:40.751Z,39.3
2018-03-04T06:55:30.137Z,39.3
2018-03-04T06:56:19.596Z,39.3
2018-03-04T06:57:10.351Z,39.3
2018-03-04T06:58:00.471Z,39.2
2018-03-04T06:58:50.082Z,39.2
2018-03-04T06:59:40.743Z,39.1
2018-03-04T07:00:31.002Z,39.1
2018-03-04T07:01:20.549Z,39.1
2018-03-04T07:02:10.802Z,39.1
2018-03-04T07:03:01.052Z,39.1
2018-03-04T07:03:51.195Z,39
2018-03-04T07:04:40.537Z,39
2018-03-04T07:05:31.064Z,39
2018-03-04T07:06:20.891Z,38.9
2018-03-04T07:07:10.556Z,38.9
2018-03-04T07:08:00.819Z,38.9
2018-03-04T07:08:50.849Z,38.9
2018-03-04T07:09:41.653Z,38.9
2018-03-04T07:10:31.815Z,38.9
2018-03-04T07:11:21.318Z,38.9
2018-03-04T07:12:10.781Z,38.9
2018-03-04T07:13:01.679Z,38.9
2018-03-04T07:13:51.613Z,38.9
2018-03-04T07:14:40.465Z,39
2018-03-04T07:15:32.214Z,39.1
2018-03-04T07:16:22.371Z,39.1
2018-03-04T07:17:11.688Z,39.2
2018-03-04T07:18:02.011Z,39.3
2018-03-04T07:18:50.736Z,39.3
2018-03-04T07:19:41.973Z,39.3
2018-03-04T07:20:31.284Z,39.3
2018-03-04T07:21:20.842Z,39.3
2018-03-04T07:22:12.645Z,39.4
2018-03-04T07:23:02.242Z,39.4
2018-03-04T07:23:52.311Z,39.4
2018-03-04T07:24:42.348Z,39.4
2018-03-04T07:25:32.223Z,39.5
2018-03-04T07:26:22.405Z,39.4
2018-03-04T07:27:11.956Z,39.5
2018-03-04T07:28:03.508Z,39.5
2018-03-04T07:28:51.868Z,39.5
2018-03-04T07:29:43.062Z,39.5
2018-03-04T07:30:33.182Z,39.5
2018-03-04T07:31:22.555Z,39.5
2018-03-04T07:32:13.321Z,39.5
2018-03-04T07:33:02.533Z,39.5
2018-03-04T07:33:52.498Z,39.6
2018-03-04T07:34:42.517Z,39.6
2018-03-04T07:35:33.725Z,39.5
2018-03-04T07:36:22.872Z,39.5
2018-03-04T07:37:12.736Z,39.6
2018-03-04T07:38:02.582Z,39.6
2018-03-04T07:38:53.502Z,39.6
2018-03-04T07:39:43.899Z,39.6
2018-03-04T07:40:32.759Z,39.6
2018-03-04T07:41:23.119Z,39.6
2018-03-04T07:42:12.995Z,39.6
2018-03-04T07:43:03.517Z,39.6
2018-03-04T07:43:53.098Z,39.6
2018-03-04T07:44:43.566Z,39.6
2018-03-04T07:45:32.828Z,39.6
2018-03-04T07:46:23.982Z,39.6
2018-03-04T07:47:13.844Z,39.6
2018-03-04T07:48:03.148Z,39.6
2018-03-04T07:48:54.350Z,39.6
2018-03-04T07:49:43.827Z,39.6
2018-03-04T07:50:34.461Z,39.6
2018-03-04T07:51:23.699Z,39.6
2018-03-04T07:52:14.182Z,39.6
2018-03-04T07:53:03.472Z,39.6
2018-03-04T07:53:55.272Z,39.6
2018-03-04T07:54:44.699Z,39.6
2018-03-04T07:55:34.412Z,39.6
2018-03-04T07:56:25.066Z,39.6
2018-03-04T07:57:14.348Z,39.6
2018-03-04T07:58:04.791Z,39.6
2018-03-04T07:58:54.736Z,39.6
2018-03-04T07:59:44.890Z,39.6
2018-03-04T08:00:35.471Z,39.6
2018-03-04T08:01:23.616Z,39.6
2018-03-04T08:02:14.763Z,39.6
2018-03-04T08:03:03.913Z,39.6
2018-03-04T08:03:55.199Z,39.6
2018-03-04T08:04:44.866Z,39.5
2018-03-04T08:05:34.658Z,39.5
2018-03-04T08:06:25.053Z,39.5
2018-03-04T08:07:14.718Z,39.5
2018-03-04T08:08:04.411Z,39.6
2018-03-04T08:08:55.733Z,39.5
2018-03-04T08:09:44.743Z,39.5
2018-03-04T08:10:34.685Z,39.5
2018-03-04T08:11:26.109Z,39.5
2018-03-04T08:12:15.500Z,39.5
2018-03-04T08:13:05.722Z,39.5
2018-03-04T08:13:55.711Z,39.5
2018-03-04T08:14:45.958Z,39.4
2018-03-04T08:15:35.435Z,39.4
2018-03-04T08:16:25.770Z,39.4
2018-03-04T08:17:16.015Z,39.4
2018-03-04T08:18:05.121Z,39.4
2018-03-04T08:18:56.235Z,39.4
2018-03-04T08:19:45.931Z,39.4
2018-03-04T08:20:35.688Z,39.4
2018-03-04T08:21:26.723Z,39.4
2018-03-04T08:22:16.111Z,39.4
2018-03-04T08:23:06.427Z,39.4
2018-03-04T08:23:56.339Z,39.4
2018-03-04T08:24:46.552Z,39.5
2018-03-04T08:25:36.779Z,39.4
2018-03-04T08:26:27.145Z,39.5
2018-03-04T08:27:17.817Z,39.5
2018-03-04T08:28:06.796Z,39.5
2018-03-04T08:28:57.008Z,39.5
2018-03-04T08:29:45.909Z,39.5
2018-03-04T08:30:36.719Z,39.5
2018-03-04T08:31:26.758Z,39.5
2018-03-04T08:32:16.867Z,39.5
2018-03-04T08:33:05.838Z,39.5
2018-03-04T08:33:57.652Z,39.5
2018-03-04T08:34:47.296Z,39.5
2018-03-04T08:35:37.410Z,39.5
2018-03-04T08:36:27.188Z,39.5
2018-03-04T08:37:17.771Z,39.5
2018-03-04T08:38:08.039Z,39.5
2018-03-04T08:39:47.222Z,39.5
2018-03-04T08:40:38.125Z,39.4
2018-03-04T08:41:27.144Z,39.5
2018-03-04T08:42:18.156Z,39.4
2018-03-04T08:43:06.825Z,39.4
2018-03-04T08:43:57.446Z,39.3
2018-03-04T08:44:47.953Z,39.3
2018-03-04T08:45:38.630Z,39.2
2018-03-04T08:46:27.701Z,39.1
2018-03-04T08:47:17.451Z,39.1
2018-03-04T08:48:08.415Z,39
2018-03-04T08:48:57.856Z,38.9
2018-03-04T08:49:47.735Z,38.9
2018-03-04T08:50:38.521Z,38.9
2018-03-04T08:51:27.644Z,38.8
2018-03-04T08:52:16.921Z,38.8
2018-03-04T08:53:07.338Z,38.8
2018-03-04T08:53:58.680Z,38.7
2018-03-04T08:54:48.539Z,38.8
2018-03-04T08:55:38.128Z,38.8
2018-03-04T08:56:29.510Z,38.8
2018-03-04T08:57:19.397Z,38.8
2018-03-04T08:58:08.679Z,38.9
2018-03-04T08:58:59.210Z,38.9
2018-03-04T08:59:48.047Z,38.9
2018-03-04T09:00:38.494Z,38.9
2018-03-04T09:01:28.718Z,38.9
2018-03-04T09:02:18.987Z,38.9
2018-03-04T09:03:08.963Z,38.9
2018-03-04T09:03:59.688Z,39
2018-03-04T09:04:49.883Z,39
2018-03-04T09:05:40.077Z,39
2018-03-04T09:06:28.480Z,39
2018-03-04T09:07:18.519Z,39
2018-03-04T09:08:09.200Z,39.1
2018-03-04T09:08:59.848Z,39.1
2018-03-04T09:09:49.854Z,39.1
2018-03-04T09:10:39.092Z,39.1
2018-03-04T09:11:29.500Z,39.1
2018-03-04T09:12:19.939Z,39
2018-03-04T09:13:09.970Z,39.1
2018-03-04T09:14:00.056Z,39.1
2018-03-04T09:14:50.797Z,39.1
2018-03-04T09:15:40.134Z,39.1
2018-03-04T09:16:30.066Z,39.1
2018-03-04T09:17:19.951Z,39.1
2018-03-04T09:18:10.073Z,39
2018-03-04T09:19:00.427Z,39.1
2018-03-04T09:19:50.432Z,39.1
2018-03-04T09:20:40.070Z,39.1
2018-03-04T09:21:31.647Z,39.1
2018-03-04T09:22:20.772Z,39
2018-03-04T09:23:10.397Z,39
2018-03-04T09:24:00.406Z,39
2018-03-04T09:24:50.875Z,39
2018-03-04T09:25:40.449Z,39
2018-03-04T09:26:31.305Z,39
2018-03-04T09:27:20.119Z,38.9
2018-03-04T09:28:10.603Z,39
2018-03-04T09:29:00.501Z,38.9
2018-03-04T09:29:50.377Z,38.9
2018-03-04T09:30:41.355Z,38.9
2018-03-04T09:31:31.238Z,38.9
2018-03-04T09:32:21.715Z,38.9
2018-03-04T09:33:10.604Z,38.9
2018-03-04T09:34:01.125Z,38.9
2018-03-04T09:34:51.143Z,38.9
2018-03-04T09:35:41.725Z,38.9
2018-03-04T09:36:31.845Z,38.9
2018-03-04T09:37:22.193Z,38.9
2018-03-04T09:38:12.503Z,38.9
2018-03-04T09:39:01.463Z,38.9
2018-03-04T09:39:51.743Z,38.8
2018-03-04T09:40:41.511Z,38.9
2018-03-04T09:41:31.803Z,38.8
2018-03-04T09:42:21.605Z,38.8
2018-03-04T09:43:11.952Z,38.8
2018-03-04T09:44:02.188Z,38.8
2018-03-04T09:44:51.889Z,38.8
2018-03-04T09:45:43.288Z,38.8
2018-03-04T09:46:32.602Z,38.8
2018-03-04T09:47:21.939Z,38.8
2018-03-04T09:48:12.142Z,38.8
2018-03-04T09:49:01.924Z,38.8
2018-03-04T09:49:53.074Z,38.8
2018-03-04T09:50:43.139Z,38.8
2018-03-04T09:51:33.189Z,38.8
2018-03-04T09:52:22.670Z,38.8
2018-03-04T09:53:12.680Z,38.8
2018-03-04T09:54:02.333Z,38.8
2018-03-04T09:54:52.680Z,38.8
2018-03-04T09:55:42.491Z,38.8
2018-03-04T09:56:32.878Z,38.8
2018-03-04T09:57:23.647Z,38.8
2018-03-04T09:58:13.015Z,38.8
2018-03-04T09:59:02.970Z,38.7
2018-03-04T09:59:53.221Z,38.7
2018-03-04T10:00:42.087Z,38.7
2018-03-04T10:01:33.267Z,38.7
2018-03-04T10:02:23.598Z,38.7
2018-03-04T10:03:12.659Z,38.7
2018-03-04T10:04:03.329Z,38.7
2018-03-04T10:04:54.113Z,38.7
2018-03-04T10:05:43.931Z,38.7
2018-03-04T10:06:33.386Z,38.7
2018-03-04T10:07:24.634Z,38.6
2018-03-04T10:08:14.136Z,38.7
2018-03-04T10:09:03.359Z,38.6
2018-03-04T10:09:53.064Z,38.6
2018-03-04T10:10:44.159Z,38.6
2018-03-04T10:11:34.548Z,38.6
2018-03-04T10:12:24.478Z,38.6
2018-03-04T10:13:13.822Z,38.5
2018-03-04T10:14:04.004Z,26.5
2018-03-04T10:14:54.518Z,18.5
2018-03-04T10:15:43.407Z,15.8
2018-03-04T10:16:34.606Z,15.1
2018-03-04T10:17:23.789Z,15.5
2018-03-04T10:18:14.014Z,16.6
2018-03-04T10:19:04.898Z,18
2018-03-04T10:19:54.231Z,19.4
2018-03-04T10:20:44.147Z,20.9
2018-03-04T10:21:34.926Z,22.4
2018-03-04T10:22:23.770Z,23.8
2018-03-04T10:23:14.658Z,25
2018-03-04T10:24:03.916Z,26.2
2018-03-04T10:24:55.048Z,27.2
2018-03-04T10:25:44.351Z,28.2
2018-03-04T10:26:35.927Z,29
2018-03-04T10:27:25.240Z,29.8
2018-03-04T10:28:15.375Z,30.5
2018-03-04T10:29:05.045Z,31.1
2018-03-04T10:29:53.876Z,31.7
2018-03-04T10:30:45.588Z,32.2
2018-03-04T10:31:34.859Z,32.6
2018-03-04T10:32:24.557Z,33.1
2018-03-04T10:33:15.555Z,33.4
2018-03-04T10:34:06.415Z,33.8
2018-03-04T10:34:56.438Z,34.1
2018-03-04T10:35:47.041Z,34.3
2018-03-04T10:36:36.510Z,34.6
2018-03-04T10:37:26.913Z,34.8
2018-03-04T10:38:16.635Z,35
2018-03-04T10:39:06.152Z,35.2
2018-03-04T10:39:57.334Z,35.4
2018-03-04T10:40:46.821Z,35.6
2018-03-04T10:41:37.437Z,35.7
2018-03-04T10:42:27.172Z,35.8
2018-03-04T10:43:17.559Z,35.9
2018-03-04T10:44:07.667Z,36.1
2018-03-04T10:44:57.138Z,36.2
2018-03-04T10:45:47.448Z,36.3
2018-03-04T10:46:37.802Z,36.4
2018-03-04T10:47:27.879Z,36.4
2018-03-04T10:48:17.950Z,36.6
2018-03-04T10:49:06.119Z,36.6
2018-03-04T10:49:56.182Z,36.7
2018-03-04T10:50:46.569Z,36.8
2018-03-04T10:51:37.321Z,36.8
2018-03-04T10:52:27.504Z,36.9
2018-03-04T10:53:17.250Z,36.9
2018-03-04T10:54:06.324Z,36.9
2018-03-04T10:54:57.701Z,37
2018-03-04T10:55:46.582Z,37.1
2018-03-04T10:56:35.898Z,37.1
2018-03-04T10:57:25.728Z,37.1
2018-03-04T10:58:17.795Z,37.2
2018-03-04T10:59:07.351Z,37.2
2018-03-04T10:59:57.716Z,37.2
2018-03-04T11:00:47.946Z,37.3
2018-03-04T11:01:38.331Z,37.3
2018-03-04T11:02:26.622Z,37.3
2018-03-04T11:03:17.037Z,37.3
2018-03-04T11:04:07.448Z,37.4
2018-03-04T11:04:56.953Z,37.4
2018-03-04T11:05:46.791Z,37.4
2018-03-04T11:06:38.536Z,37.4
2018-03-04T11:07:27.508Z,37.4
2018-03-04T11:08:18.031Z,37.5
2018-03-04T11:09:07.002Z,37.5
2018-03-04T11:09:57.516Z,37.5